Latest Weather Observations for Cooma Airport

IDN60901

Issued at 1:51 pm EST Friday 29 July 2016 (issued every 10 minutes, with the page automatically refreshed every 10 minutes)

About weather observations | Map of Canberra area stations | Latest observations for Canberra area | Other Formats
Station Details ID: 070217 Name: COOMA AIRPORT AWS Lat: -36.29 Lon: 148.97 Height: 930.0 m
Data from the previous 72 hours. | See also: Recent months at Cooma Airport
Date/Time
EST
Temp
°C
App
Temp
°C
Dew
Point
°C
Rel
Hum
%
Delta-T
°C
Wind Press
QNH
hPa
Press
MSL
hPa
Rain since
9am
mm
Dir  Spd
km/h
Gust
km/h
Spd
kts
Gust
kts
29/01:30pm 9.9 5.3 1.3 55 3.8 NW 15 24 8 13 1017.9 1019.5 0.0
29/01:00pm 9.9 5.3 1.5 56 3.7 WNW 15 22 8 12 1018.2 1019.8 0.0
29/12:30pm 9.3 2.9 1.2 57 3.5 NW 24 35 13 19 1018.6 1020.3 0.0
29/12:00pm 9.0 2.3 1.2 58 3.4 NW 26 39 14 21 1019.3 1020.9 0.0
29/11:30am 8.7 3.9 0.2 55 3.6 NNW 15 22 8 12 1019.8 1021.5 0.0
29/11:00am 6.2 2.4 1.5 72 2.0 NNE 11 17 6 9 1020.4 1022.1 0.0
29/10:30am 3.7 0.4 0.4 79 1.3 NE 7 11 4 6 1021.1 1022.8 0.0
29/10:00am 2.7 0.3 -0.1 82 1.1 NNE 2 9 1 5 1021.4 1023.1 0.0
29/09:30am 1.7 -2.4 -0.1 88 0.7 NE 11 17 6 9 1021.4 1023.1 0.0
29/09:00am 1.3 -3.7 -1.1 84 0.9 NNE 15 19 8 10 1020.8 1022.5 0.0
29/08:30am -0.1 -5.1 -1.4 91 0.5 NE 15 19 8 10 1020.8 1022.5 0.0
29/08:00am -1.1 -5.7 -1.4 98 0.1 NE 13 15 7 8 1020.8 1022.5 0.0
29/07:30am -2.6 -7.4 -2.7 99 -0.1 N 13 13 7 7 1020.7 1022.4 0.0
29/07:00am -4.3 -9.3 -4.4 99 -0.1 NNE 13 13 7 7 1020.7 1022.4 0.0
29/06:30am -4.8 -9.9 -5.5 95 0.0 NE 13 15 7 8 1020.5 1022.2 0.0
29/06:00am -4.0 -9.8 -4.5 96 0.0 NNE 17 17 9 9 1020.2 1021.8 0.0
29/05:30am -4.3 -9.0 -5.5 91 0.2 NNE 11 13 6 7 1020.3 1021.9 0.0
29/05:00am -2.8 -7.7 -3.6 94 0.1 N 13 15 7 8 1020.2 1021.8 0.0
29/04:30am -3.7 -9.2 -5.1 90 0.3 NNE 15 17 8 9 1019.9 1021.6 0.0
29/04:00am -1.1 -7.3 -2.8 88 0.5 NE 20 24 11 13 1019.5 1021.2 0.0
29/03:30am -2.6 -8.6 -3.3 95 0.1 NE 19 20 10 11 1019.8 1021.5 0.0
29/03:00am -2.4 -7.7 -3.5 92 0.3 NE 15 19 8 10 1020.0 1021.7 0.0
29/02:30am -1.4 -7.5 -2.4 93 0.3 NE 20 22 11 12 1020.3 1021.9 0.0
29/02:00am -3.2 -8.6 -4.2 93 0.2 NE 15 17 8 9 1020.5 1022.2 0.0
29/01:30am -2.5 -7.1 -4.2 88 0.5 NNE 11 15 6 8 1020.8 1022.5 0.0
29/01:00am 0.0 -4.9 -3.4 78 1.2 NE 13 17 7 9 1020.7 1022.4 0.0
29/12:30am 1.6 -2.4 -2.3 75 1.4 NE 9 15 5 8 1021.0 1022.7 0.0
29/12:00am 1.9 -2.8 -2.1 75 1.5 N 13 22 7 12 1021.0 1022.7 0.0
 
Date/Time
EST
Temp
°C
App
Temp
°C
Dew
Point
°C
Rel
Hum
%
Delta-T
°C
Wind Press
QNH
hPa
Press
MSL
hPa
Rain since
9am
mm
Dir  Spd
km/h
Gust
km/h
Spd
kts
Gust
kts
28/11:30pm 1.8 -3.7 -2.0 76 1.4 N 17 20 9 11 1020.9 1022.6 0.0
28/11:00pm 1.7 -3.1 -2.2 75 1.4 N 13 19 7 10 1021.3 1023.0 0.0
28/10:30pm 1.0 -3.5 -2.9 75 1.5 NE 11 13 6 7 1021.3 1023.0 0.0
28/10:00pm 1.6 -2.1 -2.5 74 1.5 NE 7 9 4 5 1021.6 1023.3 0.0
28/09:30pm 1.5 -2.2 -2.6 74 1.5 NNW 7 15 4 8 1021.8 1023.5 0.0
28/09:00pm 1.0 -2.8 -3.5 72 1.6 SE 7 11 4 6 1021.9 1023.6 0.0
28/08:30pm 4.2 -1.9 -2.0 64 2.4 WNW 20 30 11 16 1021.8 1023.5 0.0
28/08:00pm 4.5 -1.4 -2.1 62 2.5 NW 19 30 10 16 1021.9 1023.6 0.0
28/07:30pm 4.1 -1.9 -1.9 65 2.3 NW 20 26 11 14 1021.6 1023.3 0.0
28/07:00pm 4.2 -1.3 -1.8 65 2.3 NW 17 30 9 16 1021.6 1023.3 0.0
28/06:30pm 4.7 -1.7 -1.7 63 2.5 NW 22 33 12 18 1021.4 1023.1 0.0
28/06:00pm 5.0 -1.0 -1.7 62 2.6 NW 20 28 11 15 1021.0 1022.7 0.0
28/05:30pm 5.8 -0.2 -1.8 58 3.0 WNW 20 28 11 15 1020.8 1022.5 0.0
28/05:00pm 7.1 -0.1 -1.8 53 3.5 WNW 26 39 14 21 1020.6 1022.3 0.0
28/04:30pm 8.2 1.4 -1.6 50 3.9 WNW 24 33 13 18 1020.4 1022.1 0.0
28/04:00pm 9.1 2.4 -1.3 48 4.2 WNW 24 32 13 17 1020.5 1022.2 0.0
28/03:30pm 9.6 2.5 -1.1 47 4.4 WNW 26 37 14 20 1020.4 1022.1 0.0
28/03:00pm 10.0 2.5 -1.1 46 4.6 W 28 41 15 22 1020.2 1021.8 0.0
28/02:30pm 10.3 3.6 -1.4 44 4.8 WNW 24 35 13 19 1020.2 1021.8 0.0
28/02:00pm 9.9 2.8 -1.2 46 4.6 WNW 26 37 14 20 1020.3 1021.9 0.0
28/01:30pm 10.6 4.4 -0.2 47 4.6 WNW 22 35 12 19 1020.4 1022.1 0.0
28/01:00pm 10.3 3.7 -0.5 47 4.5 WNW 24 33 13 18 1020.7 1022.4 0.0
28/12:30pm 10.1 3.1 -0.7 47 4.5 WNW 26 37 14 20 1020.7 1022.4 0.0
28/12:00pm 10.1 3.0 -1.6 44 4.8 W 26 37 14 20 1021.3 1023.0 0.0
28/11:30am 10.2 4.3 -0.9 46 4.6 WNW 20 30 11 16 1021.8 1023.5 0.0
28/11:00am 10.1 3.5 -0.4 48 4.4 W 24 33 13 18 1021.9 1023.6 0.0
28/10:30am 9.5 4.3 0.1 52 4.0 WNW 17 24 9 13 1021.9 1023.6 0.0
28/10:00am 7.9 2.6 -0.8 54 3.5 NW 17 26 9 14 1021.9 1023.6 0.0
28/09:30am 7.3 4.5 2.0 69 2.3 NE 6 11 3 6 1021.9 1023.6 0.0
28/09:00am 4.1 0.5 0.4 77 1.5 NE 9 11 5 6 1021.7 1023.4 0.2
28/08:30am 2.9 -1.2 0.0 81 1.1 ENE 11 15 6 8 1021.6 1023.3 0.2
28/08:00am 1.4 -3.7 -1.8 79 1.2 NNE 15 19 8 10 1021.4 1023.1 0.2
28/07:30am 0.6 -4.1 -1.6 85 0.9 NE 13 15 7 8 1021.5 1023.2 0.2
28/07:00am 0.2 -4.1 -1.5 88 0.6 NE 11 15 6 8 1021.4 1023.1 0.2
28/06:30am 0.0 -4.1 -0.3 98 0.1 NNE 11 17 6 9 1020.7 1022.4 0.2
28/06:00am -3.4 -7.1 -4.1 95 0.1 NE 6 7 3 4 1020.9 1022.6 0.2
28/05:30am -3.9 -7.7 -5.6 88 0.4 NE 6 9 3 5 1020.7 1022.4 0.2
28/05:00am -1.5 -3.9 -3.1 89 0.5 CALM 0 0 0 0 1020.6 1022.3 0.2
28/04:30am -0.3 -4.4 -2.7 84 0.8 NW 9 11 5 6 1020.4 1022.1 0.2
28/04:00am -0.9 -3.9 -1.7 94 0.2 W 4 9 2 5 1020.3 1021.9 0.2
28/03:30am -1.6 -4.4 -2.9 91 0.4 E 2 9 1 5 1020.0 1021.7 0.2
28/03:00am -1.0 -4.6 -2.4 90 0.5 N 7 11 4 6 1019.6 1021.3 0.2
28/02:30am -0.1 -3.5 -2.0 87 0.7 ENE 6 9 3 5 1019.6 1021.3 0.2
28/02:00am -0.5 -4.9 -2.5 86 0.7 ENE 11 13 6 7 1019.2 1020.8 0.2
28/01:30am 0.2 -3.4 -2.0 85 0.8 ENE 7 13 4 7 1019.2 1020.8 0.2
28/01:00am 0.9 -1.3 -1.7 83 1.0 CALM 0 6 0 3 1019.2 1020.8 0.2
28/12:30am 0.9 -1.6 -1.2 86 0.8 NNE 2 9 1 5 1019.1 1020.7 0.2
28/12:00am 0.0 -3.5 -3.0 80 1.1 NE 6 7 3 4 1019.2 1020.8 0.2
 
Date/Time
EST
Temp
°C
App
Temp
°C
Dew
Point
°C
Rel
Hum
%
Delta-T
°C
Wind Press
QNH
hPa
Press
MSL
hPa
Rain since
9am
mm
Dir  Spd
km/h
Gust
km/h
Spd
kts
Gust
kts
27/11:30pm 2.4 -1.4 -0.7 80 1.2 W 9 13 5 7 1019.3 1020.9 0.2
27/11:00pm 2.6 -1.6 -0.7 79 1.3 W 11 19 6 10 1019.3 1020.9 0.2
27/10:30pm 1.2 -3.4 -1.2 84 0.9 SW 13 15 7 8 1019.1 1020.7 0.2
27/10:00pm 0.6 -3.8 -2.3 81 1.1 S 11 15 6 8 1018.7 1020.4 0.2
27/09:30pm 3.6 -1.4 -1.2 71 1.9 W 15 19 8 10 1018.3 1019.9 0.2
27/09:00pm 4.7 -1.6 -0.7 68 2.1 W 22 33 12 18 1017.6 1019.3 0.2
27/08:30pm 4.8 -1.0 0.0 71 1.9 W 20 30 11 16 1017.3 1018.9 0.2
27/08:00pm 4.0 0.6 -0.4 73 1.7 W 7 15 4 8 1017.0 1018.6 0.2
27/07:30pm 4.5 -0.4 -0.7 69 2.1 W 15 20 8 11 1017.0 1018.6 0.2
27/07:00pm 5.0 -0.9 -0.6 67 2.2 W 20 28 11 15 1016.5 1018.1 0.2
27/06:30pm 5.0 -1.2 -0.4 68 2.2 W 22 32 12 17 1015.9 1017.5 0.2
27/06:00pm 5.0 0.5 -0.4 68 2.2 WNW 13 28 7 15 1015.2 1016.8 0.2
27/05:30pm 5.1 0.1 -0.9 65 2.4 WSW 15 22 8 12 1014.7 1016.2 0.2
27/05:00pm 6.6 -0.4 -0.6 60 2.9 W 26 41 14 22 1014.4 1015.9 0.2
27/04:30pm 7.9 1.3 -0.6 55 3.5 W 24 33 13 18 1013.7 1015.2 0.2
27/04:00pm 9.1 2.0 -1.3 48 4.3 W 26 35 14 19 1013.0 1014.6 0.2
27/03:30pm 9.4 1.2 -0.8 49 4.2 WSW 32 37 17 20 1012.6 1014.1 0.2
27/03:00pm 9.8 1.9 -1.6 45 4.7 W 30 37 16 20 1012.2 1013.7 0.2
27/02:30pm 10.2 3.2 -0.6 47 4.5 WSW 26 33 14 18 1011.7 1013.2 0.2
27/02:00pm 10.4 3.4 -0.4 47 4.6 W 26 37 14 20 1011.6 1013.1 0.2
27/01:30pm 10.0 2.8 -1.7 44 4.8 W 26 39 14 21 1011.3 1012.8 0.2
27/01:00pm 10.2 2.7 -1.2 45 4.7 W 28 39 15 21 1011.1 1012.5 0.2
27/12:30pm 10.0 1.6 -1.4 45 4.7 W 33 43 18 23 1011.0 1012.4 0.2
27/12:00pm 9.7 1.3 -0.8 48 4.4 W 33 44 18 24 1011.1 1012.5 0.2
27/11:30am 9.2 0.1 -0.7 50 4.1 WSW 37 50 20 27 1010.7 1012.2 0.2
27/11:00am 8.9 0.7 -0.7 51 4.0 WSW 32 48 17 26 1010.4 1011.9 0.2
27/10:30am 9.0 0.9 -0.3 52 3.9 W 32 43 17 23 1010.0 1011.4 0.2
27/10:00am 8.5 2.0 0.0 55 3.6 WSW 24 33 13 18 1009.3 1010.8 0.0
27/09:30am 7.6 2.5 0.6 61 3.0 WSW 17 24 9 13 1009.0 1010.4 0.0
27/09:00am 6.8 2.8 0.7 65 2.6 NW 11 19 6 10 1008.3 1009.7 0.0
27/08:30am 5.2 0.6 1.5 77 1.6 NNW 15 20 8 11 1008.0 1009.4 0.0
27/08:00am 4.3 -0.7 1.5 82 1.2 NNW 17 20 9 11 1007.8 1009.2 0.0
27/07:30am 3.6 -1.4 1.2 84 1.0 NNW 17 22 9 12 1007.6 1009.0 0.0
27/07:00am 2.5 -1.5 0.2 85 0.9 NNW 11 15 6 8 1007.7 1009.1 0.0
27/06:30am 2.8 -2.0 -0.1 81 1.1 NNW 15 26 8 14 1006.8 1008.2 0.0
27/06:00am 3.5 -4.6 -0.1 77 1.4 NW 32 48 17 26 1005.3 1006.6 0.0
27/05:30am 3.6 -5.1 -0.2 76 1.5 NW 35 54 19 29 1004.3 1005.6 0.0
27/05:00am 3.4 -5.2 0.1 79 1.3 NW 35 61 19 33 1004.3 1005.6 0.0
27/04:30am 3.4 -5.1 0.6 82 1.1 NW 35 54 19 29 1004.6 1005.9 0.0
27/04:19am 3.6 -3.6 0.7 81 1.2 NW 28 48 15 26 1004.8 1006.2 0.0
27/04:00am 3.7 -2.4 0.1 77 1.5 NNW 22 44 12 24 1005.1 1006.4 0.0
27/03:30am 3.3 -1.6 -0.2 78 1.4 NNW 15 20 8 11 1005.8 1007.2 0.0
27/03:00am 2.8 -3.0 -0.3 80 1.2 NNW 20 28 11 15 1006.4 1007.7 0.0
27/02:30am 1.1 -3.6 -2.1 79 1.2 NNE 13 19 7 10 1007.0 1008.4 0.0
27/02:00am 2.1 -2.2 -1.9 75 1.5 NE 11 15 6 8 1007.5 1008.8 0.0
27/01:30am 3.1 -2.8 -2.0 69 1.9 NW 19 33 10 18 1007.5 1008.8 0.0
27/01:00am 3.2 -5.8 -2.7 65 2.2 WNW 35 48 19 26 1007.7 1009.1 0.0
27/12:30am 3.5 -5.9 -2.7 64 2.3 WNW 37 56 20 30 1007.2 1008.6 0.0
27/12:13am 3.4 -7.0 -2.1 67 2.1 WNW 43 67 23 36 1007.7 1009.1 0.0
27/12:00am 3.2 -7.2 -1.7 70 1.9 WNW 43 59 23 32 1008.2 1009.6 0.0
 
Date/Time
EST
Temp
°C
App
Temp
°C
Dew
Point
°C
Rel
Hum
%
Delta-T
°C
Wind Press
QNH
hPa
Press
MSL
hPa
Rain since
9am
mm
Dir  Spd
km/h
Gust
km/h
Spd
kts
Gust
kts
26/11:44pm 3.4 -5.5 -2.3 66 2.1 WNW 35 63 19 34 1008.1 1009.5 0.0
26/11:30pm 3.2 -5.2 -2.7 65 2.2 WNW 32 48 17 26 1008.2 1009.6 0.0
26/11:06pm 2.9 -4.8 -3.0 65 2.2 WNW 28 46 15 25 1008.4 1009.9 0.0
26/11:00pm 2.9 -5.6 -3.0 65 2.2 WNW 32 46 17 25 1008.4 1009.9 0.0
26/10:30pm 3.4 -5.3 -3.8 59 2.6 NW 33 52 18 28 1008.6 1010.0 0.0
26/10:14pm 3.6 -4.2 -3.9 58 2.7 NW 28 50 15 27 1008.7 1010.1 0.0
26/10:00pm 3.2 -4.2 -3.8 60 2.5 NNW 26 44 14 24 1009.0 1010.4 0.0
26/09:30pm 3.2 -2.0 -2.7 65 2.2 NNW 15 37 8 20 1010.1 1011.5 0.0
26/09:00pm 2.7 -1.4 -3.0 66 2.1 SSE 9 17 5 9 1010.1 1011.5 0.0
26/08:30pm 3.1 0.0 -2.8 65 2.2 SSW 4 11 2 6 1010.5 1012.0 0.0
26/08:00pm 3.1 -2.1 -2.6 66 2.1 NNW 15 28 8 15 1010.9 1012.3 0.0
26/07:30pm 2.4 -1.9 -1.9 73 1.6 N 11 17 6 9 1010.9 1012.3 0.0
26/07:00pm 2.7 -1.4 -3.0 66 2.1 NNE 9 17 5 9 1010.6 1012.1 0.0
26/06:30pm 2.8 -0.8 -2.3 69 1.9 ESE 7 13 4 7 1011.0 1012.4 0.0
26/06:00pm 3.3 -1.2 -3.1 63 2.4 NNW 11 19 6 10 1010.6 1012.1 0.0
26/05:30pm 3.5 -1.3 -2.7 64 2.3 NNW 13 20 7 11 1010.6 1012.1 0.0
26/05:00pm 4.0 -1.6 -2.8 61 2.5 NW 17 26 9 14 1010.4 1011.9 0.0
26/04:30pm 5.8 1.4 -2.8 54 3.3 N 11 19 6 10 1010.0 1011.4 0.0
26/04:00pm 6.0 1.1 -3.1 52 3.5 NW 13 26 7 14 1010.0 1011.4 0.0
26/03:30pm 6.0 1.1 -3.1 52 3.5 NW 13 20 7 11 1010.1 1011.5 0.0
26/03:00pm 5.1 -1.5 -3.4 54 3.2 WNW 22 32 12 17 1010.4 1011.9 0.0
26/02:30pm 5.5 -3.7 -4.1 50 3.5 WNW 35 54 19 29 1010.0 1011.4 0.0
26/02:12pm 6.5 -1.3 -3.4 49 3.7 WNW 28 46 15 25 1009.7 1011.1 0.0
26/02:00pm 6.3 0.1 -3.1 51 3.6 NW 20 41 11 22 1010.0 1011.4 0.0

Latest Capital City Observations: Canberra | Sydney | Melbourne | Brisbane | Adelaide | Perth | Hobart | Darwin

Other Formats:

Comma delimited format used in spreadsheet applications
http://www.bom.gov.au/fwo/IDN60903/IDN60903.94921.axf

JavaScript Object Notation format (JSON) in row-major order
http://www.bom.gov.au/fwo/IDN60903/IDN60903.94921.json